sensor_id;sensor_type;location;lat;lon;timestamp;temperature;humidity
19007;DHT22;9636;47.382;8.480;2023-08-01T00:00:17;23.80;95.30
19007;DHT22;9636;47.382;8.480;2023-08-01T00:02:43;23.80;95.30
19007;DHT22;9636;47.382;8.480;2023-08-01T00:05:10;23.80;95.30
19007;DHT22;9636;47.382;8.480;2023-08-01T00:07:37;23.80;95.30
19007;DHT22;9636;47.382;8.480;2023-08-01T00:10:05;23.70;95.30
19007;DHT22;9636;47.382;8.480;2023-08-01T00:12:33;23.70;95.30
19007;DHT22;9636;47.382;8.480;2023-08-01T00:15:00;23.70;95.30
19007;DHT22;9636;47.382;8.480;2023-08-01T00:17:27;23.70;95.40
19007;DHT22;9636;47.382;8.480;2023-08-01T00:19:54;23.70;95.30
19007;DHT22;9636;47.382;8.480;2023-08-01T00:22:21;23.70;95.30
19007;DHT22;9636;47.382;8.480;2023-08-01T00:24:48;23.70;95.40
19007;DHT22;9636;47.382;8.480;2023-08-01T00:27:15;23.70;95.40
19007;DHT22;9636;47.382;8.480;2023-08-01T00:29:43;23.60;95.30
19007;DHT22;9636;47.382;8.480;2023-08-01T00:32:10;23.60;95.30
19007;DHT22;9636;47.382;8.480;2023-08-01T00:34:36;23.60;95.30
19007;DHT22;9636;47.382;8.480;2023-08-01T00:37:04;23.60;95.30
19007;DHT22;9636;47.382;8.480;2023-08-01T00:39:31;23.60;95.40
19007;DHT22;9636;47.382;8.480;2023-08-01T00:41:58;23.60;95.40
19007;DHT22;9636;47.382;8.480;2023-08-01T00:44:25;23.60;95.40
19007;DHT22;9636;47.382;8.480;2023-08-01T00:46:53;23.50;95.40
19007;DHT22;9636;47.382;8.480;2023-08-01T00:49:20;23.50;95.30
19007;DHT22;9636;47.382;8.480;2023-08-01T00:51:47;23.50;95.40
19007;DHT22;9636;47.382;8.480;2023-08-01T00:54:14;23.50;95.30
19007;DHT22;9636;47.382;8.480;2023-08-01T00:56:42;23.50;95.30
19007;DHT22;9636;47.382;8.480;2023-08-01T00:59:11;23.50;95.30
19007;DHT22;9636;47.382;8.480;2023-08-01T01:01:38;23.50;95.40
19007;DHT22;9636;47.382;8.480;2023-08-01T01:04:06;23.50;95.40
19007;DHT22;9636;47.382;8.480;2023-08-01T01:06:38;23.50;95.40
19007;DHT22;9636;47.382;8.480;2023-08-01T01:09:14;23.50;95.40
19007;DHT22;9636;47.382;8.480;2023-08-01T01:11:41;23.50;95.40
19007;DHT22;9636;47.382;8.480;2023-08-01T01:14:08;23.50;95.40
19007;DHT22;9636;47.382;8.480;2023-08-01T01:16:35;23.50;95.30
19007;DHT22;9636;47.382;8.480;2023-08-01T01:19:09;23.50;95.30
19007;DHT22;9636;47.382;8.480;2023-08-01T01:21:38;23.50;95.40
19007;DHT22;9636;47.382;8.480;2023-08-01T01:24:07;23.50;95.30
19007;DHT22;9636;47.382;8.480;2023-08-01T01:26:34;23.40;95.30
19007;DHT22;9636;47.382;8.480;2023-08-01T01:29:02;23.40;95.30
19007;DHT22;9636;47.382;8.480;2023-08-01T01:31:30;23.40;95.30
19007;DHT22;9636;47.382;8.480;2023-08-01T01:33:58;23.40;95.30
19007;DHT22;9636;47.382;8.480;2023-08-01T01:36:25;23.40;95.30
19007;DHT22;9636;47.382;8.480;2023-08-01T01:38:53;23.40;95.30
19007;DHT22;9636;47.382;8.480;2023-08-01T01:41:20;23.40;95.30
19007;DHT22;9636;47.382;8.480;2023-08-01T01:43:47;23.40;95.30
19007;DHT22;9636;47.382;8.480;2023-08-01T01:46:14;23.40;95.30
19007;DHT22;9636;47.382;8.480;2023-08-01T01:48:41;23.40;95.30
19007;DHT22;9636;47.382;8.480;2023-08-01T01:51:08;23.40;95.30
19007;DHT22;9636;47.382;8.480;2023-08-01T01:53:35;23.40;95.30
19007;DHT22;9636;47.382;8.480;2023-08-01T01:56:03;23.40;95.30
19007;DHT22;9636;47.382;8.480;2023-08-01T01:58:30;23.40;95.30
19007;DHT22;9636;47.382;8.480;2023-08-01T02:00:57;23.40;95.30
19007;DHT22;9636;47.382;8.480;2023-08-01T02:03:24;23.40;95.30
19007;DHT22;9636;47.382;8.480;2023-08-01T02:05:51;23.40;95.30
19007;DHT22;9636;47.382;8.480;2023-08-01T02:08:17;23.40;95.30
19007;DHT22;9636;47.382;8.480;2023-08-01T02:10:44;23.40;95.30
19007;DHT22;9636;47.382;8.480;2023-08-01T02:13:12;23.40;95.30
19007;DHT22;9636;47.382;8.480;2023-08-01T02:15:39;23.40;95.30
19007;DHT22;9636;47.382;8.480;2023-08-01T02:18:06;23.30;95.30
19007;DHT22;9636;47.382;8.480;2023-08-01T02:20:32;23.30;95.20
19007;DHT22;9636;47.382;8.480;2023-08-01T02:22:59;23.30;95.30
19007;DHT22;9636;47.382;8.480;2023-08-01T02:25:26;23.30;95.30
19007;DHT22;9636;47.382;8.480;2023-08-01T02:27:53;23.30;95.20
19007;DHT22;9636;47.382;8.480;2023-08-01T02:30:21;23.30;95.30
19007;DHT22;9636;47.382;8.480;2023-08-01T02:32:48;23.30;95.30
19007;DHT22;9636;47.382;8.480;2023-08-01T02:35:15;23.30;95.30
19007;DHT22;9636;47.382;8.480;2023-08-01T02:37:41;23.30;95.20
19007;DHT22;9636;47.382;8.480;2023-08-01T02:40:09;23.30;95.30
19007;DHT22;9636;47.382;8.480;2023-08-01T02:42:36;23.30;95.20
19007;DHT22;9636;47.382;8.480;2023-08-01T02:45:04;23.30;95.30
19007;DHT22;9636;47.382;8.480;2023-08-01T02:47:32;23.30;95.30
19007;DHT22;9636;47.382;8.480;2023-08-01T02:49:59;23.30;95.30
19007;DHT22;9636;47.382;8.480;2023-08-01T02:52:25;23.30;95.30
19007;DHT22;9636;47.382;8.480;2023-08-01T02:54:53;23.30;95.20
19007;DHT22;9636;47.382;8.480;2023-08-01T02:57:20;23.30;95.30
19007;DHT22;9636;47.382;8.480;2023-08-01T02:59:47;23.30;95.30
19007;DHT22;9636;47.382;8.480;2023-08-01T03:02:13;23.30;95.30
19007;DHT22;9636;47.382;8.480;2023-08-01T03:04:42;23.30;95.30
19007;DHT22;9636;47.382;8.480;2023-08-01T03:07:08;23.30;95.30
19007;DHT22;9636;47.382;8.480;2023-08-01T03:09:35;23.20;95.30
19007;DHT22;9636;47.382;8.480;2023-08-01T03:12:02;23.20;95.20
19007;DHT22;9636;47.382;8.480;2023-08-01T03:14:29;23.30;95.30
19007;DHT22;9636;47.382;8.480;2023-08-01T03:16:56;23.20;95.20
19007;DHT22;9636;47.382;8.480;2023-08-01T03:19:23;23.20;95.20
19007;DHT22;9636;47.382;8.480;2023-08-01T03:21:51;23.20;95.30
19007;DHT22;9636;47.382;8.480;2023-08-01T03:24:18;23.20;95.30
19007;DHT22;9636;47.382;8.480;2023-08-01T03:26:45;23.20;95.30
19007;DHT22;9636;47.382;8.480;2023-08-01T03:29:11;23.20;95.30
19007;DHT22;9636;47.382;8.480;2023-08-01T03:31:38;23.20;95.30
19007;DHT22;9636;47.382;8.480;2023-08-01T03:34:05;23.10;95.20
19007;DHT22;9636;47.382;8.480;2023-08-01T03:36:34;23.10;95.30
19007;DHT22;9636;47.382;8.480;2023-08-01T03:39:02;23.20;95.30
19007;DHT22;9636;47.382;8.480;2023-08-01T03:41:31;23.10;95.30
19007;DHT22;9636;47.382;8.480;2023-08-01T03:43:57;23.10;95.30
19007;DHT22;9636;47.382;8.480;2023-08-01T03:46:24;23.10;95.30
19007;DHT22;9636;47.382;8.480;2023-08-01T03:48:51;23.10;95.30
19007;DHT22;9636;47.382;8.480;2023-08-01T03:51:18;23.10;95.30
19007;DHT22;9636;47.382;8.480;2023-08-01T03:53:46;23.10;95.30
19007;DHT22;9636;47.382;8.480;2023-08-01T03:56:14;23.10;95.30
19007;DHT22;9636;47.382;8.480;2023-08-01T03:58:41;23.10;95.30
19007;DHT22;9636;47.382;8.480;2023-08-01T04:01:08;23.10;95.30
19007;DHT22;9636;47.382;8.480;2023-08-01T04:03:35;23.10;95.30
19007;DHT22;9636;47.382;8.480;2023-08-01T04:06:01;23.10;95.30
19007;DHT22;9636;47.382;8.480;2023-08-01T04:08:28;23.10;95.30
19007;DHT22;9636;47.382;8.480;2023-08-01T04:10:55;23.10;95.30
19007;DHT22;9636;47.382;8.480;2023-08-01T04:13:24;23.00;95.30
19007;DHT22;9636;47.382;8.480;2023-08-01T04:15:50;23.10;95.30
19007;DHT22;9636;47.382;8.480;2023-08-01T04:18:17;23.00;95.30
19007;DHT22;9636;47.382;8.480;2023-08-01T04:20:44;23.00;95.30
19007;DHT22;9636;47.382;8.480;2023-08-01T04:23:11;23.00;95.30
19007;DHT22;9636;47.382;8.480;2023-08-01T04:25:39;23.00;95.30
19007;DHT22;9636;47.382;8.480;2023-08-01T04:28:06;23.00;95.30
19007;DHT22;9636;47.382;8.480;2023-08-01T04:30:34;23.00;95.30
19007;DHT22;9636;47.382;8.480;2023-08-01T04:33:03;23.00;95.30
19007;DHT22;9636;47.382;8.480;2023-08-01T04:35:30;23.00;95.30
19007;DHT22;9636;47.382;8.480;2023-08-01T04:37:57;23.00;95.30
19007;DHT22;9636;47.382;8.480;2023-08-01T04:40:24;23.00;95.30
19007;DHT22;9636;47.382;8.480;2023-08-01T04:42:51;23.00;95.30
19007;DHT22;9636;47.382;8.480;2023-08-01T04:45:18;23.00;95.30
19007;DHT22;9636;47.382;8.480;2023-08-01T04:47:46;23.00;95.30
19007;DHT22;9636;47.382;8.480;2023-08-01T04:50:13;23.00;95.30
19007;DHT22;9636;47.382;8.480;2023-08-01T04:52:39;23.00;95.30
19007;DHT22;9636;47.382;8.480;2023-08-01T04:55:07;23.00;95.30
19007;DHT22;9636;47.382;8.480;2023-08-01T04:57:34;23.00;95.30
19007;DHT22;9636;47.382;8.480;2023-08-01T05:00:00;23.00;95.30
19007;DHT22;9636;47.382;8.480;2023-08-01T05:02:27;23.00;95.30
19007;DHT22;9636;47.382;8.480;2023-08-01T05:04:56;23.00;95.30
19007;DHT22;9636;47.382;8.480;2023-08-01T05:07:22;23.00;95.30
19007;DHT22;9636;47.382;8.480;2023-08-01T05:09:49;23.00;95.30
19007;DHT22;9636;47.382;8.480;2023-08-01T05:12:16;22.90;95.30
19007;DHT22;9636;47.382;8.480;2023-08-01T05:14:43;22.90;95.30
19007;DHT22;9636;47.382;8.480;2023-08-01T05:17:10;22.90;95.30
19007;DHT22;9636;47.382;8.480;2023-08-01T05:19:36;22.90;95.30
19007;DHT22;9636;47.382;8.480;2023-08-01T05:22:06;22.90;95.40
19007;DHT22;9636;47.382;8.480;2023-08-01T05:24:32;22.90;95.40
19007;DHT22;9636;47.382;8.480;2023-08-01T05:26:59;22.90;95.40
19007;DHT22;9636;47.382;8.480;2023-08-01T05:29:26;22.90;95.40
19007;DHT22;9636;47.382;8.480;2023-08-01T05:31:53;22.90;95.40
19007;DHT22;9636;47.382;8.480;2023-08-01T05:34:19;22.90;95.40
19007;DHT22;9636;47.382;8.480;2023-08-01T05:36:46;22.90;95.40
19007;DHT22;9636;47.382;8.480;2023-08-01T05:39:14;22.90;95.40
19007;DHT22;9636;47.382;8.480;2023-08-01T05:41:42;22.90;95.50
19007;DHT22;9636;47.382;8.480;2023-08-01T05:44:09;22.90;95.50
19007;DHT22;9636;47.382;8.480;2023-08-01T05:46:36;22.80;95.40
19007;DHT22;9636;47.382;8.480;2023-08-01T05:49:02;22.80;95.40
19007;DHT22;9636;47.382;8.480;2023-08-01T05:51:29;22.80;95.40
19007;DHT22;9636;47.382;8.480;2023-08-01T05:53:56;22.80;95.40
19007;DHT22;9636;47.382;8.480;2023-08-01T05:56:24;22.90;95.40
19007;DHT22;9636;47.382;8.480;2023-08-01T05:58:51;22.90;95.40
19007;DHT22;9636;47.382;8.480;2023-08-01T06:01:18;22.80;95.40
19007;DHT22;9636;47.382;8.480;2023-08-01T06:03:45;22.80;95.40
19007;DHT22;9636;47.382;8.480;2023-08-01T06:06:12;22.90;95.40
19007;DHT22;9636;47.382;8.480;2023-08-01T06:08:38;22.80;95.40
19007;DHT22;9636;47.382;8.480;2023-08-01T06:11:05;22.80;95.40
19007;DHT22;9636;47.382;8.480;2023-08-01T06:13:33;22.90;95.40
19007;DHT22;9636;47.382;8.480;2023-08-01T06:16:00;22.90;95.40
19007;DHT22;9636;47.382;8.480;2023-08-01T06:18:27;22.90;96.50
19007;DHT22;9636;47.382;8.480;2023-08-01T06:20:54;23.00;96.70
19007;DHT22;9636;47.382;8.480;2023-08-01T06:23:20;23.00;96.80
19007;DHT22;9636;47.382;8.480;2023-08-01T06:25:47;23.00;96.90
19007;DHT22;9636;47.382;8.480;2023-08-01T06:28:14;23.00;97.10
19007;DHT22;9636;47.382;8.480;2023-08-01T06:30:42;23.00;97.20
19007;DHT22;9636;47.382;8.480;2023-08-01T06:33:09;23.00;97.30
19007;DHT22;9636;47.382;8.480;2023-08-01T06:35:36;23.00;97.40
19007;DHT22;9636;47.382;8.480;2023-08-01T06:38:02;23.00;97.50
19007;DHT22;9636;47.382;8.480;2023-08-01T06:40:29;23.00;97.60
19007;DHT22;9636;47.382;8.480;2023-08-01T06:42:56;23.00;97.70
19007;DHT22;9636;47.382;8.480;2023-08-01T06:45:23;23.00;98.00
19007;DHT22;9636;47.382;8.480;2023-08-01T06:47:51;23.00;98.00
19007;DHT22;9636;47.382;8.480;2023-08-01T06:50:17;23.00;98.00
19007;DHT22;9636;47.382;8.480;2023-08-01T06:52:45;23.00;98.00
19007;DHT22;9636;47.382;8.480;2023-08-01T06:55:12;23.00;97.90
19007;DHT22;9636;47.382;8.480;2023-08-01T06:57:39;23.00;97.90
19007;DHT22;9636;47.382;8.480;2023-08-01T07:00:07;23.00;98.00
19007;DHT22;9636;47.382;8.480;2023-08-01T07:02:35;23.00;97.90
19007;DHT22;9636;47.382;8.480;2023-08-01T07:05:04;23.00;97.80
19007;DHT22;9636;47.382;8.480;2023-08-01T07:07:31;23.00;97.80
19007;DHT22;9636;47.382;8.480;2023-08-01T07:09:58;23.00;97.80
19007;DHT22;9636;47.382;8.480;2023-08-01T07:12:24;23.00;97.80
19007;DHT22;9636;47.382;8.480;2023-08-01T07:14:51;23.10;97.80
19007;DHT22;9636;47.382;8.480;2023-08-01T07:17:18;23.00;97.70
19007;DHT22;9636;47.382;8.480;2023-08-01T07:19:45;23.10;97.80
19007;DHT22;9636;47.382;8.480;2023-08-01T07:22:13;23.10;97.80
19007;DHT22;9636;47.382;8.480;2023-08-01T07:24:40;23.00;97.70
19007;DHT22;9636;47.382;8.480;2023-08-01T07:27:06;23.10;97.80
19007;DHT22;9636;47.382;8.480;2023-08-01T07:29:33;23.10;97.80
19007;DHT22;9636;47.382;8.480;2023-08-01T07:32:00;23.10;97.80
19007;DHT22;9636;47.382;8.480;2023-08-01T07:34:27;23.00;97.80
19007;DHT22;9636;47.382;8.480;2023-08-01T07:36:53;23.00;97.90
19007;DHT22;9636;47.382;8.480;2023-08-01T07:39:22;23.00;97.80
19007;DHT22;9636;47.382;8.480;2023-08-01T07:41:48;23.00;98.00
19007;DHT22;9636;47.382;8.480;2023-08-01T07:44:15;23.00;97.90
19007;DHT22;9636;47.382;8.480;2023-08-01T07:46:42;23.00;97.90
19007;DHT22;9636;47.382;8.480;2023-08-01T07:49:09;23.00;97.90
19007;DHT22;9636;47.382;8.480;2023-08-01T07:51:36;23.10;97.80
19007;DHT22;9636;47.382;8.480;2023-08-01T07:54:02;23.00;97.70
19007;DHT22;9636;47.382;8.480;2023-08-01T07:56:31;23.10;97.70
19007;DHT22;9636;47.382;8.480;2023-08-01T07:58:57;23.10;97.70
19007;DHT22;9636;47.382;8.480;2023-08-01T08:01:24;23.10;97.60
19007;DHT22;9636;47.382;8.480;2023-08-01T08:03:51;23.10;97.60
19007;DHT22;9636;47.382;8.480;2023-08-01T08:06:18;23.20;97.60
19007;DHT22;9636;47.382;8.480;2023-08-01T08:08:48;23.20;97.40
19007;DHT22;9636;47.382;8.480;2023-08-01T08:11:15;23.20;97.30
19007;DHT22;9636;47.382;8.480;2023-08-01T08:13:43;23.30;97.30
19007;DHT22;9636;47.382;8.480;2023-08-01T08:16:10;23.40;97.60
19007;DHT22;9636;47.382;8.480;2023-08-01T08:18:37;23.40;97.20
19007;DHT22;9636;47.382;8.480;2023-08-01T08:21:03;23.40;97.40
19007;DHT22;9636;47.382;8.480;2023-08-01T08:23:30;23.40;97.60
19007;DHT22;9636;47.382;8.480;2023-08-01T08:25:57;23.40;97.60
19007;DHT22;9636;47.382;8.480;2023-08-01T08:28:30;23.30;97.50
19007;DHT22;9636;47.382;8.480;2023-08-01T08:30:59;23.40;97.40
19007;DHT22;9636;47.382;8.480;2023-08-01T08:33:27;23.40;97.30
19007;DHT22;9636;47.382;8.480;2023-08-01T08:35:54;23.40;97.20
19007;DHT22;9636;47.382;8.480;2023-08-01T08:38:21;23.40;97.30
19007;DHT22;9636;47.382;8.480;2023-08-01T08:40:55;23.40;97.30
19007;DHT22;9636;47.382;8.480;2023-08-01T08:43:23;23.40;97.40
19007;DHT22;9636;47.382;8.480;2023-08-01T08:45:53;23.50;97.40
19007;DHT22;9636;47.382;8.480;2023-08-01T08:48:26;23.50;97.30
19007;DHT22;9636;47.382;8.480;2023-08-01T08:50:54;23.60;97.40
19007;DHT22;9636;47.382;8.480;2023-08-01T08:53:24;23.60;97.70
19007;DHT22;9636;47.382;8.480;2023-08-01T08:55:51;23.60;97.70
19007;DHT22;9636;47.382;8.480;2023-08-01T08:58:18;23.50;97.80
19007;DHT22;9636;47.382;8.480;2023-08-01T09:00:45;23.50;97.80
19007;DHT22;9636;47.382;8.480;2023-08-01T09:03:12;23.50;97.70
19007;DHT22;9636;47.382;8.480;2023-08-01T09:05:45;23.60;97.70
19007;DHT22;9636;47.382;8.480;2023-08-01T09:08:17;23.50;97.60
19007;DHT22;9636;47.382;8.480;2023-08-01T09:10:45;23.50;97.70
19007;DHT22;9636;47.382;8.480;2023-08-01T09:13:12;23.50;97.60
19007;DHT22;9636;47.382;8.480;2023-08-01T09:15:40;23.50;97.60
19007;DHT22;9636;47.382;8.480;2023-08-01T09:18:08;23.50;97.60
19007;DHT22;9636;47.382;8.480;2023-08-01T09:20:45;23.50;97.60
19007;DHT22;9636;47.382;8.480;2023-08-01T09:23:13;23.60;97.50
19007;DHT22;9636;47.382;8.480;2023-08-01T09:25:43;23.60;97.50
19007;DHT22;9636;47.382;8.480;2023-08-01T09:28:17;23.60;97.50
19007;DHT22;9636;47.382;8.480;2023-08-01T09:30:51;23.60;97.50
19007;DHT22;9636;47.382;8.480;2023-08-01T09:33:19;23.50;97.40
19007;DHT22;9636;47.382;8.480;2023-08-01T09:35:49;23.60;97.50
19007;DHT22;9636;47.382;8.480;2023-08-01T09:38:17;23.60;97.40
19007;DHT22;9636;47.382;8.480;2023-08-01T09:40:45;23.70;97.20
19007;DHT22;9636;47.382;8.480;2023-08-01T09:43:12;23.70;97.10
19007;DHT22;9636;47.382;8.480;2023-08-01T09:45:49;23.70;97.10
19007;DHT22;9636;47.382;8.480;2023-08-01T09:48:22;23.80;97.00
19007;DHT22;9636;47.382;8.480;2023-08-01T09:50:51;23.90;96.90
19007;DHT22;9636;47.382;8.480;2023-08-01T09:53:18;23.90;96.80
19007;DHT22;9636;47.382;8.480;2023-08-01T09:55:46;24.00;96.80
19007;DHT22;9636;47.382;8.480;2023-08-01T09:58:17;24.10;96.60
19007;DHT22;9636;47.382;8.480;2023-08-01T10:00:46;24.20;96.50
19007;DHT22;9636;47.382;8.480;2023-08-01T10:03:13;24.20;96.30
19007;DHT22;9636;47.382;8.480;2023-08-01T10:05:42;24.30;96.60
19007;DHT22;9636;47.382;8.480;2023-08-01T10:08:11;24.40;96.20
19007;DHT22;9636;47.382;8.480;2023-08-01T10:10:39;24.60;95.90
19007;DHT22;9636;47.382;8.480;2023-08-01T10:13:07;25.00;95.30
19007;DHT22;9636;47.382;8.480;2023-08-01T10:15:34;25.00;95.40
19007;DHT22;9636;47.382;8.480;2023-08-01T10:18:01;24.80;95.60
19007;DHT22;9636;47.382;8.480;2023-08-01T10:20:30;24.70;95.80
19007;DHT22;9636;47.382;8.480;2023-08-01T10:22:58;24.60;95.90
19007;DHT22;9636;47.382;8.480;2023-08-01T10:25:29;24.50;96.00
19007;DHT22;9636;47.382;8.480;2023-08-01T10:27:59;24.50;96.00
19007;DHT22;9636;47.382;8.480;2023-08-01T10:30:27;24.50;96.10
19007;DHT22;9636;47.382;8.480;2023-08-01T10:32:55;24.50;96.50
19007;DHT22;9636;47.382;8.480;2023-08-01T10:35:34;24.40;97.30
19007;DHT22;9636;47.382;8.480;2023-08-01T10:38:06;24.40;98.90
19007;DHT22;9636;47.382;8.480;2023-08-01T10:40:35;24.40;99.90
19007;DHT22;9636;47.382;8.480;2023-08-01T10:43:02;24.40;99.90
19007;DHT22;9636;47.382;8.480;2023-08-01T10:45:29;24.40;99.90
19007;DHT22;9636;47.382;8.480;2023-08-01T10:48:07;24.40;99.90
19007;DHT22;9636;47.382;8.480;2023-08-01T10:50:34;24.50;99.90
19007;DHT22;9636;47.382;8.480;2023-08-01T10:53:03;24.50;99.90
19007;DHT22;9636;47.382;8.480;2023-08-01T10:55:40;24.60;99.90
19007;DHT22;9636;47.382;8.480;2023-08-01T10:58:08;24.60;99.90
19007;DHT22;9636;47.382;8.480;2023-08-01T11:00:34;24.60;99.90
19007;DHT22;9636;47.382;8.480;2023-08-01T11:03:01;24.60;99.90
19007;DHT22;9636;47.382;8.480;2023-08-01T11:05:28;24.60;99.90
19007;DHT22;9636;47.382;8.480;2023-08-01T11:07:55;24.70;99.70
19007;DHT22;9636;47.382;8.480;2023-08-01T11:10:24;24.70;97.50
19007;DHT22;9636;47.382;8.480;2023-08-01T11:12:53;24.60;97.40
19007;DHT22;9636;47.382;8.480;2023-08-01T11:15:20;24.60;97.80
19007;DHT22;9636;47.382;8.480;2023-08-01T11:17:49;24.60;97.80
19007;DHT22;9636;47.382;8.480;2023-08-01T11:20:17;24.60;97.70
19007;DHT22;9636;47.382;8.480;2023-08-01T11:22:52;24.60;97.70
19007;DHT22;9636;47.382;8.480;2023-08-01T11:25:20;24.60;97.60
19007;DHT22;9636;47.382;8.480;2023-08-01T11:28:02;24.60;97.60
19007;DHT22;9636;47.382;8.480;2023-08-01T11:30:32;24.60;97.50
19007;DHT22;9636;47.382;8.480;2023-08-01T11:32:59;24.70;97.50
19007;DHT22;9636;47.382;8.480;2023-08-01T11:35:27;24.70;97.50
19007;DHT22;9636;47.382;8.480;2023-08-01T11:37:54;24.70;97.40
19007;DHT22;9636;47.382;8.480;2023-08-01T11:40:22;24.70;97.50
19007;DHT22;9636;47.382;8.480;2023-08-01T11:42:49;24.70;97.50
19007;DHT22;9636;47.382;8.480;2023-08-01T11:45:19;24.70;97.50
19007;DHT22;9636;47.382;8.480;2023-08-01T11:47:47;24.70;97.50
19007;DHT22;9636;47.382;8.480;2023-08-01T11:50:14;24.70;97.50
19007;DHT22;9636;47.382;8.480;2023-08-01T11:52:46;24.60;97.40
19007;DHT22;9636;47.382;8.480;2023-08-01T11:55:19;24.70;97.40
19007;DHT22;9636;47.382;8.480;2023-08-01T11:57:52;24.70;97.40
19007;DHT22;9636;47.382;8.480;2023-08-01T12:00:23;24.60;97.40
19007;DHT22;9636;47.382;8.480;2023-08-01T12:02:50;24.70;97.40
19007;DHT22;9636;47.382;8.480;2023-08-01T12:05:23;24.70;97.30
19007;DHT22;9636;47.382;8.480;2023-08-01T12:07:50;24.70;97.40
19007;DHT22;9636;47.382;8.480;2023-08-01T12:10:17;24.60;97.30
19007;DHT22;9636;47.382;8.480;2023-08-01T12:12:45;24.60;97.30
19007;DHT22;9636;47.382;8.480;2023-08-01T12:15:13;24.60;97.30
19007;DHT22;9636;47.382;8.480;2023-08-01T12:17:41;24.70;97.20
19007;DHT22;9636;47.382;8.480;2023-08-01T12:20:09;24.80;97.10
19007;DHT22;9636;47.382;8.480;2023-08-01T12:22:35;24.90;97.00
19007;DHT22;9636;47.382;8.480;2023-08-01T12:25:02;25.00;96.80
19007;DHT22;9636;47.382;8.480;2023-08-01T12:27:29;25.00;96.70
19007;DHT22;9636;47.382;8.480;2023-08-01T12:29:56;25.10;96.60
19007;DHT22;9636;47.382;8.480;2023-08-01T12:32:23;25.10;96.60
19007;DHT22;9636;47.382;8.480;2023-08-01T12:34:51;25.10;96.60
19007;DHT22;9636;47.382;8.480;2023-08-01T12:37:18;25.20;96.50
19007;DHT22;9636;47.382;8.480;2023-08-01T12:39:44;25.30;96.30
19007;DHT22;9636;47.382;8.480;2023-08-01T12:42:11;25.50;96.00
19007;DHT22;9636;47.382;8.480;2023-08-01T12:44:38;25.60;95.90
19007;DHT22;9636;47.382;8.480;2023-08-01T12:47:05;25.70;95.70
19007;DHT22;9636;47.382;8.480;2023-08-01T12:49:33;25.80;95.60
19007;DHT22;9636;47.382;8.480;2023-08-01T12:52:03;25.80;95.60
19007;DHT22;9636;47.382;8.480;2023-08-01T12:54:30;25.80;95.50
19007;DHT22;9636;47.382;8.480;2023-08-01T12:56:56;25.90;95.50
19007;DHT22;9636;47.382;8.480;2023-08-01T12:59:23;25.90;95.40
19007;DHT22;9636;47.382;8.480;2023-08-01T13:01:50;25.90;95.40
19007;DHT22;9636;47.382;8.480;2023-08-01T13:04:17;26.00;95.20
19007;DHT22;9636;47.382;8.480;2023-08-01T13:06:44;26.10;95.10
19007;DHT22;9636;47.382;8.480;2023-08-01T13:09:12;26.20;94.90
19007;DHT22;9636;47.382;8.480;2023-08-01T13:11:39;26.30;94.80
19007;DHT22;9636;47.382;8.480;2023-08-01T13:14:08;26.30;94.80
19007;DHT22;9636;47.382;8.480;2023-08-01T13:16:35;26.30;94.30
19007;DHT22;9636;47.382;8.480;2023-08-01T13:19:02;26.30;94.50
19007;DHT22;9636;47.382;8.480;2023-08-01T13:21:29;26.30;94.60
19007;DHT22;9636;47.382;8.480;2023-08-01T13:23:55;26.30;94.30
19007;DHT22;9636;47.382;8.480;2023-08-01T13:26:24;26.30;94.20
19007;DHT22;9636;47.382;8.480;2023-08-01T13:28:50;26.30;94.10
19007;DHT22;9636;47.382;8.480;2023-08-01T13:31:17;26.40;94.10
19007;DHT22;9636;47.382;8.480;2023-08-01T13:33:44;26.40;94.00
19007;DHT22;9636;47.382;8.480;2023-08-01T13:36:11;26.50;94.00
19007;DHT22;9636;47.382;8.480;2023-08-01T13:38:37;26.40;93.90
19007;DHT22;9636;47.382;8.480;2023-08-01T13:41:04;26.40;94.00
19007;DHT22;9636;47.382;8.480;2023-08-01T13:43:32;26.40;93.90
19007;DHT22;9636;47.382;8.480;2023-08-01T13:45:59;26.50;93.90
19007;DHT22;9636;47.382;8.480;2023-08-01T13:48:26;26.40;93.80
19007;DHT22;9636;47.382;8.480;2023-08-01T13:50:52;26.50;93.80
19007;DHT22;9636;47.382;8.480;2023-08-01T13:53:23;26.40;93.80
19007;DHT22;9636;47.382;8.480;2023-08-01T13:55:50;26.40;93.80
19007;DHT22;9636;47.382;8.480;2023-08-01T13:58:17;26.40;93.70
19007;DHT22;9636;47.382;8.480;2023-08-01T14:00:45;26.40;93.80
19007;DHT22;9636;47.382;8.480;2023-08-01T14:03:12;26.40;93.80
19007;DHT22;9636;47.382;8.480;2023-08-01T14:05:39;26.40;93.90
19007;DHT22;9636;47.382;8.480;2023-08-01T14:08:05;26.40;93.90
19007;DHT22;9636;47.382;8.480;2023-08-01T14:10:32;26.40;93.80
19007;DHT22;9636;47.382;8.480;2023-08-01T14:12:59;26.50;93.80
19007;DHT22;9636;47.382;8.480;2023-08-01T14:15:26;26.60;93.70
19007;DHT22;9636;47.382;8.480;2023-08-01T14:17:54;26.60;93.60
19007;DHT22;9636;47.382;8.480;2023-08-01T14:20:21;26.60;93.60
19007;DHT22;9636;47.382;8.480;2023-08-01T14:22:48;26.60;93.60
19007;DHT22;9636;47.382;8.480;2023-08-01T14:25:14;26.60;93.60
19007;DHT22;9636;47.382;8.480;2023-08-01T14:27:41;26.50;93.70
19007;DHT22;9636;47.382;8.480;2023-08-01T14:30:08;26.40;93.80
19007;DHT22;9636;47.382;8.480;2023-08-01T14:32:36;26.30;94.00
19007;DHT22;9636;47.382;8.480;2023-08-01T14:35:05;26.30;94.10
19007;DHT22;9636;47.382;8.480;2023-08-01T14:37:33;26.20;94.10
19007;DHT22;9636;47.382;8.480;2023-08-01T14:40:00;26.20;94.10
19007;DHT22;9636;47.382;8.480;2023-08-01T14:42:27;26.10;94.10
19007;DHT22;9636;47.382;8.480;2023-08-01T14:44:53;26.10;94.20
19007;DHT22;9636;47.382;8.480;2023-08-01T14:47:21;26.00;94.30
19007;DHT22;9636;47.382;8.480;2023-08-01T14:49:48;26.00;94.40
19007;DHT22;9636;47.382;8.480;2023-08-01T14:52:16;26.00;94.40
19007;DHT22;9636;47.382;8.480;2023-08-01T14:54:43;26.00;94.40
19007;DHT22;9636;47.382;8.480;2023-08-01T14:57:10;26.10;94.30
19007;DHT22;9636;47.382;8.480;2023-08-01T14:59:36;26.10;94.10
19007;DHT22;9636;47.382;8.480;2023-08-01T15:02:03;26.00;94.10
19007;DHT22;9636;47.382;8.480;2023-08-01T15:04:30;26.00;94.30
19007;DHT22;9636;47.382;8.480;2023-08-01T15:06:57;26.00;94.40
19007;DHT22;9636;47.382;8.480;2023-08-01T15:09:25;26.00;94.50
19007;DHT22;9636;47.382;8.480;2023-08-01T15:11:52;25.90;94.60
19007;DHT22;9636;47.382;8.480;2023-08-01T15:14:19;25.90;94.70
19007;DHT22;9636;47.382;8.480;2023-08-01T15:16:45;25.90;94.70
19007;DHT22;9636;47.382;8.480;2023-08-01T15:19:12;25.90;94.80
19007;DHT22;9636;47.382;8.480;2023-08-01T15:21:39;25.80;94.80
19007;DHT22;9636;47.382;8.480;2023-08-01T15:24:06;25.80;94.90
19007;DHT22;9636;47.382;8.480;2023-08-01T15:26:35;25.90;94.90
19007;DHT22;9636;47.382;8.480;2023-08-01T15:29:01;25.80;94.90
19007;DHT22;9636;47.382;8.480;2023-08-01T15:31:29;25.80;94.90
19007;DHT22;9636;47.382;8.480;2023-08-01T15:33:56;25.80;95.00
19007;DHT22;9636;47.382;8.480;2023-08-01T15:36:26;25.80;95.10
19007;DHT22;9636;47.382;8.480;2023-08-01T15:38:53;25.70;95.10
19007;DHT22;9636;47.382;8.480;2023-08-01T15:41:20;25.70;95.10
19007;DHT22;9636;47.382;8.480;2023-08-01T15:43:49;25.80;95.00
19007;DHT22;9636;47.382;8.480;2023-08-01T15:46:15;25.90;95.00